createdAt,value
2023-01-23T00:01:40.852Z,26.20
2023-01-23T00:04:10.613Z,27.40
2023-01-23T00:09:10.451Z,26.20
2023-01-23T00:11:38.647Z,26.60
2023-01-23T00:14:06.689Z,25.30
2023-01-23T00:16:34.715Z,25.80
2023-01-23T00:19:02.844Z,28.30
2023-01-23T00:21:31.280Z,26.10
2023-01-23T00:24:01.756Z,29.00
2023-01-23T00:26:33.158Z,26.80
2023-01-23T00:29:02.616Z,26.40
2023-01-23T00:31:37.484Z,26.80
2023-01-23T00:34:10.436Z,26.30
2023-01-23T00:39:15.741Z,24.60
2023-01-23T00:41:45.261Z,25.70
2023-01-23T00:44:14.122Z,23.00
2023-01-23T00:46:42.875Z,24.40
2023-01-23T00:49:10.861Z,23.80
2023-01-23T00:51:38.768Z,22.80
2023-01-23T00:54:06.787Z,23.40
2023-01-23T00:56:34.857Z,22.20
2023-01-23T00:59:02.942Z,21.80
2023-01-23T01:01:32.739Z,20.60
2023-01-23T01:04:01.327Z,21.00
2023-01-23T01:06:30.059Z,20.50
2023-01-23T01:08:58.657Z,19.80
2023-01-23T01:11:27.025Z,19.90
2023-01-23T01:13:55.502Z,21.00
2023-01-23T01:16:25.953Z,19.90
2023-01-23T01:18:54.091Z,20.60
2023-01-23T01:21:22.269Z,21.60
2023-01-23T01:23:50.538Z,19.70
2023-01-23T01:26:18.831Z,20.40
2023-01-23T01:28:48.335Z,21.60
2023-01-23T01:31:17.007Z,22.40
2023-01-23T01:33:45.280Z,20.20
2023-01-23T01:36:16.655Z,23.00
2023-01-23T01:38:45.214Z,22.60
2023-01-23T01:41:14.562Z,20.80
2023-01-23T01:43:43.084Z,20.40
2023-01-23T01:46:22.972Z,20.50
2023-01-23T01:49:05.549Z,19.40
2023-01-23T01:51:50.412Z,19.90
2023-01-23T01:54:35.845Z,19.10
2023-01-23T01:57:12.301Z,17.80
2023-01-23T01:59:47.136Z,20.60
2023-01-23T02:02:24.674Z,19.40
2023-01-23T02:05:00.269Z,18.90
2023-01-23T02:07:44.971Z,18.90
2023-01-23T02:10:14.429Z,19.20
2023-01-23T02:12:48.401Z,18.50
2023-01-23T02:15:17.400Z,18.90
2023-01-23T02:17:47.849Z,19.20
2023-01-23T02:20:23.024Z,19.80
2023-01-23T02:22:57.806Z,18.00
2023-01-23T02:25:35.743Z,20.00
2023-01-23T02:28:04.257Z,19.30
2023-01-23T02:30:32.310Z,20.60
2023-01-23T02:33:31.204Z,17.90
2023-01-23T02:36:00.831Z,19.90
2023-01-23T02:38:49.841Z,23.90
2023-01-23T02:41:21.409Z,20.00
2023-01-23T02:43:50.929Z,19.80
2023-01-23T02:46:20.702Z,19.60
2023-01-23T02:48:49.731Z,18.60
2023-01-23T02:51:18.230Z,20.00
2023-01-23T02:53:48.732Z,19.70
2023-01-23T02:56:17.422Z,20.30
2023-01-23T02:59:04.360Z,21.00
2023-01-23T03:01:35.811Z,20.40
2023-01-23T03:04:06.544Z,18.90
2023-01-23T03:06:37.729Z,19.40
2023-01-23T03:09:12.450Z,19.60
2023-01-23T03:11:44.607Z,20.00
2023-01-23T03:14:22.144Z,19.00
2023-01-23T03:16:54.984Z,18.60
2023-01-23T03:19:26.776Z,18.60
2023-01-23T03:21:55.149Z,19.80
2023-01-23T03:24:23.836Z,18.20
2023-01-23T03:26:52.533Z,19.50
2023-01-23T03:29:44.528Z,18.40
2023-01-23T03:32:13.849Z,18.30
2023-01-23T03:34:42.748Z,18.60
2023-01-23T03:37:12.368Z,20.10
2023-01-23T03:39:59.098Z,18.50
2023-01-23T03:42:28.756Z,18.40
2023-01-23T03:44:57.154Z,17.80
2023-01-23T03:47:26.527Z,18.10
2023-01-23T03:49:54.622Z,19.10
2023-01-23T03:52:22.903Z,18.80
2023-01-23T03:54:51.072Z,18.30
2023-01-23T03:57:19.347Z,18.80
2023-01-23T03:59:47.871Z,20.00
2023-01-23T04:02:16.681Z,19.30
2023-01-23T04:04:44.913Z,18.60
2023-01-23T04:07:13.004Z,18.30
2023-01-23T04:09:41.048Z,20.80
2023-01-23T04:12:08.963Z,17.60
2023-01-23T04:14:37.783Z,21.30
2023-01-23T04:17:08.118Z,29.60
2023-01-23T04:19:36.306Z,21.30
2023-01-23T04:22:05.127Z,18.40
2023-01-23T04:24:33.272Z,17.80
2023-01-23T04:27:01.362Z,16.90
2023-01-23T04:29:29.689Z,17.00
2023-01-23T04:31:58.406Z,18.50
2023-01-23T04:34:26.528Z,18.20
2023-01-23T04:36:54.632Z,17.20
2023-01-23T04:39:22.727Z,16.30
2023-01-23T04:41:50.856Z,17.00
2023-01-23T04:44:21.636Z,16.80
2023-01-23T04:46:53.238Z,17.50
2023-01-23T04:49:25.522Z,18.60
2023-01-23T04:51:54.313Z,19.90
2023-01-23T04:54:22.571Z,21.60
2023-01-23T04:56:50.672Z,20.60
2023-01-23T04:59:18.846Z,18.10
2023-01-23T05:01:46.837Z,17.90
2023-01-23T05:04:14.799Z,17.60
2023-01-23T05:06:42.961Z,18.00
2023-01-23T05:09:10.950Z,18.10
2023-01-23T05:11:39.008Z,19.00
2023-01-23T05:14:07.179Z,22.00
2023-01-23T05:16:35.181Z,25.30
2023-01-23T05:19:03.353Z,20.30
2023-01-23T05:21:31.392Z,19.50
2023-01-23T05:23:59.530Z,17.70
2023-01-23T05:26:27.427Z,17.70
2023-01-23T05:28:55.330Z,17.90
2023-01-23T05:31:23.524Z,18.10
2023-01-23T05:33:51.583Z,17.40
2023-01-23T05:36:19.642Z,17.60
2023-01-23T05:38:47.640Z,16.40
2023-01-23T05:41:15.552Z,17.00
2023-01-23T05:43:44.041Z,17.10
2023-01-23T05:46:12.041Z,17.00
2023-01-23T05:48:40.068Z,18.10
2023-01-23T05:51:08.175Z,15.60
2023-01-23T05:53:36.221Z,17.60
2023-01-23T05:56:10.730Z,17.90
2023-01-23T05:58:38.868Z,19.20
2023-01-23T06:01:07.029Z,17.20
2023-01-23T06:03:37.563Z,19.40
2023-01-23T06:06:06.036Z,18.20
2023-01-23T06:08:34.069Z,19.40
2023-01-23T06:11:04.378Z,18.10
2023-01-23T06:13:32.620Z,18.70
2023-01-23T06:16:00.781Z,19.10
2023-01-23T06:18:28.832Z,20.40
2023-01-23T06:21:04.325Z,21.60
2023-01-23T06:23:32.270Z,19.80
2023-01-23T06:26:02.584Z,19.60
2023-01-23T06:28:30.679Z,19.50
2023-01-23T06:31:04.203Z,21.00
2023-01-23T06:33:32.913Z,21.20
2023-01-23T06:36:04.191Z,22.20
2023-01-23T06:38:32.959Z,22.60
2023-01-23T06:41:01.057Z,21.10
2023-01-23T06:43:29.219Z,21.70
2023-01-23T06:45:57.827Z,23.20
2023-01-23T06:48:25.958Z,21.20
2023-01-23T06:50:54.088Z,23.00
2023-01-23T06:53:22.180Z,22.00
2023-01-23T06:55:50.379Z,23.40
2023-01-23T06:58:18.553Z,24.10
2023-01-23T07:00:46.540Z,22.90
2023-01-23T07:03:15.285Z,25.20
2023-01-23T07:05:43.635Z,26.40
2023-01-23T07:08:13.012Z,27.50
2023-01-23T07:10:40.960Z,24.40
2023-01-23T07:13:11.383Z,23.30
2023-01-23T07:15:41.111Z,23.20
2023-01-23T07:18:10.051Z,24.20
2023-01-23T07:20:38.435Z,23.40
2023-01-23T07:23:06.675Z,23.50
2023-01-23T07:25:34.727Z,26.10
2023-01-23T07:28:02.910Z,26.60
2023-01-23T07:30:33.269Z,26.50
2023-01-23T07:33:15.675Z,27.60
2023-01-23T07:35:43.838Z,27.20
2023-01-23T07:38:11.785Z,26.90
2023-01-23T07:40:42.607Z,29.60
2023-01-23T07:43:10.591Z,27.00
2023-01-23T07:46:21.139Z,27.90
2023-01-23T07:49:42.600Z,29.10
2023-01-23T07:52:11.355Z,25.20
2023-01-23T07:54:39.593Z,26.20
2023-01-23T07:57:09.849Z,27.40
2023-01-23T07:59:40.691Z,29.30
2023-01-23T08:02:13.262Z,29.50
2023-01-23T08:04:41.349Z,27.70
2023-01-23T08:07:09.639Z,30.80
2023-01-23T08:09:37.683Z,29.90
2023-01-23T08:12:08.421Z,26.80
2023-01-23T08:14:36.479Z,26.90
2023-01-23T08:17:04.575Z,29.10
2023-01-23T08:19:32.603Z,28.40
2023-01-23T08:22:00.697Z,26.40
2023-01-23T08:24:28.937Z,25.50
2023-01-23T08:26:56.965Z,27.00
2023-01-23T08:29:25.060Z,28.00
2023-01-23T08:31:55.084Z,27.80
2023-01-23T08:34:24.244Z,26.50
2023-01-23T08:36:52.340Z,28.80
2023-01-23T08:39:20.763Z,30.30
2023-01-23T08:41:48.840Z,27.20
2023-01-23T08:44:20.072Z,28.80
2023-01-23T08:46:48.179Z,26.70
2023-01-23T08:49:19.582Z,27.00
2023-01-23T08:51:47.710Z,26.60
2023-01-23T08:54:18.776Z,26.50
2023-01-23T08:56:46.726Z,26.50
2023-01-23T08:59:14.891Z,24.80
2023-01-23T09:01:43.289Z,28.00
2023-01-23T09:04:11.459Z,53.20
2023-01-23T09:06:39.844Z,28.60
2023-01-23T09:09:11.188Z,26.50
2023-01-23T09:11:39.404Z,24.60
2023-01-23T09:14:07.448Z,39.40
2023-01-23T09:16:37.101Z,32.90
2023-01-23T09:19:05.325Z,32.30
2023-01-23T09:21:35.649Z,26.20
2023-01-23T09:24:12.196Z,24.70
2023-01-23T09:26:45.695Z,24.70
2023-01-23T09:29:15.244Z,23.20
2023-01-23T09:31:43.635Z,24.10
2023-01-23T09:34:11.781Z,26.00
2023-01-23T09:36:43.400Z,26.90
2023-01-23T09:39:12.373Z,28.80
2023-01-23T09:41:41.404Z,24.70
2023-01-23T09:44:39.020Z,24.40
2023-01-23T09:47:28.640Z,28.50
2023-01-23T09:50:08.431Z,30.20
2023-01-23T09:52:44.541Z,30.40
2023-01-23T09:55:42.281Z,27.90
2023-01-23T09:58:32.265Z,26.10
2023-01-23T10:01:00.577Z,25.80
2023-01-23T10:03:32.182Z,26.10
2023-01-23T10:06:15.983Z,34.00
2023-01-23T10:09:01.293Z,33.30
2023-01-23T10:12:02.402Z,29.10
2023-01-23T10:14:45.385Z,26.50
2023-01-23T10:20:15.725Z,27.50
2023-01-23T10:23:34.433Z,26.80
2023-01-23T10:26:04.468Z,26.90
2023-01-23T10:28:39.296Z,27.80
2023-01-23T10:31:23.546Z,27.30
2023-01-23T10:34:20.481Z,28.10
2023-01-23T10:37:07.200Z,29.30
2023-01-23T10:40:40.250Z,28.60
2023-01-23T10:43:20.863Z,28.30
2023-01-23T10:45:52.979Z,27.60
2023-01-23T10:48:44.127Z,27.30
2023-01-23T10:51:46.828Z,29.80
2023-01-23T10:54:33.976Z,31.10
2023-01-23T10:57:25.718Z,29.50
2023-01-23T11:00:12.576Z,30.10
2023-01-23T11:02:49.804Z,30.30
2023-01-23T11:05:53.518Z,31.10
2023-01-23T11:08:29.650Z,29.60
2023-01-23T11:11:15.946Z,32.30
2023-01-23T11:14:03.452Z,31.20
2023-01-23T11:16:32.077Z,28.80
2023-01-23T11:19:08.174Z,31.00
2023-01-23T11:21:38.488Z,30.00
2023-01-23T11:24:38.154Z,30.60
2023-01-23T11:27:28.737Z,30.30
2023-01-23T11:30:08.655Z,28.30
2023-01-23T11:33:00.823Z,28.00
2023-01-23T11:35:52.298Z,29.30
2023-01-23T11:38:30.778Z,29.10
2023-01-23T11:40:59.666Z,30.70
2023-01-23T11:43:28.934Z,27.70
2023-01-23T11:46:10.200Z,30.80
2023-01-23T11:48:55.153Z,31.00
2023-01-23T11:51:57.130Z,31.30
2023-01-23T11:55:09.405Z,31.20
2023-01-23T11:58:14.776Z,31.00
2023-01-23T12:01:15.096Z,30.70
2023-01-23T12:04:25.213Z,30.00
2023-01-23T12:07:20.637Z,29.20
2023-01-23T12:09:59.366Z,30.60
2023-01-23T12:13:00.836Z,30.90
2023-01-23T12:15:38.341Z,29.60
2023-01-23T12:18:22.300Z,31.90
2023-01-23T12:21:11.301Z,32.00
2023-01-23T12:24:34.593Z,31.40
2023-01-23T12:27:44.849Z,31.20
2023-01-23T12:30:39.073Z,31.60
2023-01-23T12:33:39.837Z,31.20
2023-01-23T12:36:54.398Z,34.60
2023-01-23T12:39:49.377Z,34.50
2023-01-23T12:42:38.745Z,33.40
2023-01-23T12:45:23.367Z,33.10
2023-01-23T12:48:12.267Z,31.20
2023-01-23T12:51:01.099Z,33.70
2023-01-23T12:53:34.833Z,31.80
2023-01-23T12:59:46.988Z,31.50
2023-01-23T13:02:45.192Z,32.50
2023-01-23T13:05:42.742Z,30.80
2023-01-23T13:08:14.818Z,31.00
2023-01-23T13:11:15.348Z,31.90
2023-01-23T13:13:45.243Z,30.60
2023-01-23T13:16:19.094Z,34.00
2023-01-23T13:19:14.729Z,31.30
2023-01-23T13:22:30.651Z,32.50
2023-01-23T13:25:10.231Z,32.40
2023-01-23T13:27:55.713Z,35.40
2023-01-23T13:30:26.515Z,35.50
2023-01-23T13:33:06.990Z,34.00
2023-01-23T13:35:44.800Z,35.20
2023-01-23T13:38:22.169Z,36.00
2023-01-23T13:41:13.482Z,33.20
2023-01-23T13:44:17.578Z,36.30
2023-01-23T14:22:45.086Z,35.50
2023-01-23T14:25:19.432Z,32.30
2023-01-23T14:27:53.588Z,33.20
2023-01-23T14:30:26.955Z,36.10
2023-01-23T14:32:56.144Z,34.10
2023-01-23T14:35:31.477Z,36.70
2023-01-23T14:38:02.882Z,32.30
2023-01-23T14:40:47.018Z,33.90
2023-01-23T14:43:21.809Z,34.50
2023-01-23T14:46:22.725Z,33.20
2023-01-23T14:48:55.585Z,32.20
2023-01-23T14:51:26.313Z,36.60
2023-01-23T14:54:02.261Z,37.80
2023-01-23T14:56:39.339Z,37.10
2023-01-23T14:59:32.971Z,37.20
2023-01-23T15:02:20.661Z,35.00
2023-01-23T15:05:10.651Z,36.20
2023-01-23T15:07:57.013Z,40.00
2023-01-23T15:10:29.041Z,41.10
2023-01-23T15:13:10.068Z,43.80
2023-01-23T15:15:38.884Z,40.90
2023-01-23T15:18:23.871Z,39.20
2023-01-23T15:21:29.422Z,39.20
2023-01-23T15:24:17.147Z,35.40
2023-01-23T15:27:23.269Z,39.30
2023-01-23T15:29:52.274Z,34.20
2023-01-23T15:32:25.840Z,30.30
2023-01-23T15:34:57.630Z,32.30
2023-01-23T15:37:28.047Z,39.00
2023-01-23T15:40:02.096Z,43.40
2023-01-23T15:42:32.126Z,38.80
2023-01-23T15:45:03.929Z,37.00
2023-01-23T15:47:32.606Z,38.30
2023-01-23T15:50:01.819Z,35.90
2023-01-23T15:52:44.610Z,34.60
2023-01-23T15:55:13.765Z,32.60
2023-01-23T15:57:43.309Z,35.00
2023-01-23T16:00:21.087Z,40.00
2023-01-23T16:02:56.791Z,35.60
2023-01-23T16:05:32.327Z,35.90
2023-01-23T16:08:03.510Z,40.20
2023-01-23T16:10:36.673Z,37.50
2023-01-23T16:13:05.276Z,37.60
2023-01-23T16:15:35.472Z,36.70
2023-01-23T16:18:04.886Z,39.60
2023-01-23T16:20:39.936Z,37.80
2023-01-23T16:23:22.908Z,45.50
2023-01-23T16:28:22.897Z,39.10
2023-01-23T16:30:51.965Z,33.90
2023-01-23T16:33:20.890Z,35.00
2023-01-23T16:35:50.243Z,39.30
2023-01-23T16:38:27.653Z,36.50
2023-01-23T16:40:56.791Z,42.10
2023-01-23T16:43:24.820Z,46.00
2023-01-23T16:45:56.240Z,43.90
2023-01-23T16:48:27.660Z,43.20
2023-01-23T16:51:08.166Z,40.10
2023-01-23T16:53:41.248Z,39.80
2023-01-23T16:56:19.657Z,43.20
2023-01-23T16:58:48.170Z,40.90
2023-01-23T17:01:20.798Z,44.70
2023-01-23T17:06:24.039Z,39.90
2023-01-23T17:08:53.627Z,40.90
2023-01-23T17:11:35.568Z,38.60
2023-01-23T17:14:09.493Z,42.40
2023-01-23T17:16:37.731Z,40.70
2023-01-23T17:19:21.710Z,40.60
2023-01-23T17:21:50.124Z,46.80
2023-01-23T17:24:19.089Z,43.80
2023-01-23T17:26:47.128Z,47.60
2023-01-23T17:29:15.758Z,47.00
2023-01-23T17:31:44.000Z,48.20
2023-01-23T17:34:23.461Z,63.80
2023-01-23T17:36:52.954Z,51.80
2023-01-23T17:39:21.454Z,45.20
2023-01-23T17:41:51.405Z,43.60
2023-01-23T17:44:19.597Z,50.60
2023-01-23T17:46:48.175Z,50.30
2023-01-23T17:49:30.812Z,49.40
2023-01-23T17:52:01.219Z,47.00
2023-01-23T17:54:29.745Z,46.70
2023-01-23T17:56:57.971Z,50.50
2023-01-23T17:59:25.961Z,47.90
2023-01-23T18:01:54.255Z,50.40
2023-01-23T18:04:22.923Z,48.20
2023-01-23T18:06:51.395Z,46.80
2023-01-23T18:09:20.245Z,53.30
2023-01-23T18:11:52.517Z,66.00
2023-01-23T18:14:50.596Z,50.70
2023-01-23T18:18:08.921Z,52.80
2023-01-23T18:20:37.362Z,46.40
2023-01-23T18:23:07.063Z,47.50
2023-01-23T18:25:36.047Z,47.10
2023-01-23T18:28:08.674Z,45.00
2023-01-23T18:30:47.258Z,45.10
2023-01-23T18:33:21.345Z,43.00
2023-01-23T18:36:00.762Z,46.80
2023-01-23T18:39:20.671Z,43.70
2023-01-23T18:42:06.335Z,48.10
2023-01-23T18:44:35.508Z,47.20
2023-01-23T18:47:17.175Z,44.80
2023-01-23T18:49:49.699Z,44.70
2023-01-23T18:55:24.939Z,42.90
2023-01-23T18:58:12.683Z,47.00
2023-01-23T19:01:23.280Z,43.80
2023-01-23T19:03:53.982Z,45.00
2023-01-23T19:06:26.037Z,44.50
2023-01-23T19:08:56.686Z,43.00
2023-01-23T19:12:24.971Z,47.80
2023-01-23T19:15:12.085Z,45.60
2023-01-23T19:18:14.549Z,45.10
2023-01-23T19:20:49.133Z,45.70
2023-01-23T19:23:42.764Z,47.00
2023-01-23T19:26:16.812Z,48.00
2023-01-23T19:28:46.818Z,46.00
2023-01-23T19:31:31.300Z,43.70
2023-01-23T19:34:01.964Z,44.10
2023-01-23T19:36:36.088Z,42.20
2023-01-23T19:39:07.106Z,41.60
2023-01-23T19:41:54.558Z,43.10
2023-01-23T19:44:24.936Z,47.00
2023-01-23T19:46:54.558Z,40.60
2023-01-23T19:49:26.739Z,45.00
2023-01-23T19:51:56.252Z,44.20
2023-01-23T19:54:25.658Z,43.40
2023-01-23T19:56:54.914Z,46.50
2023-01-23T19:59:25.318Z,46.50
2023-01-23T20:01:55.286Z,44.30
2023-01-23T20:04:24.861Z,45.50
2023-01-23T20:06:54.116Z,44.00
2023-01-23T20:09:23.413Z,42.60
2023-01-23T20:11:52.829Z,44.20
2023-01-23T20:14:25.597Z,44.50
2023-01-23T20:16:55.331Z,43.40
2023-01-23T20:19:25.353Z,45.30
2023-01-23T20:21:55.533Z,42.80
2023-01-23T20:24:24.975Z,46.10
2023-01-23T20:26:54.621Z,46.20
2023-01-23T20:29:24.192Z,44.60
2023-01-23T20:31:54.675Z,44.50
2023-01-23T20:34:24.107Z,46.10
2023-01-23T20:36:56.204Z,45.40
2023-01-23T20:39:26.025Z,46.00
2023-01-23T20:41:56.784Z,45.10
2023-01-23T20:44:26.280Z,44.10
2023-01-23T20:46:56.266Z,41.90
2023-01-23T20:49:25.556Z,43.70
2023-01-23T20:52:14.883Z,40.00
2023-01-23T20:54:44.407Z,43.20
2023-01-23T20:57:17.441Z,43.30
2023-01-23T20:59:47.823Z,40.90
2023-01-23T21:02:23.143Z,42.00
2023-01-23T21:04:54.046Z,42.30
2023-01-23T21:07:23.125Z,42.20
2023-01-23T21:09:52.234Z,43.60
2023-01-23T21:12:21.359Z,42.90
2023-01-23T21:14:50.411Z,43.20
2023-01-23T21:17:19.584Z,41.10
2023-01-23T21:19:49.404Z,43.10
2023-01-23T21:22:18.206Z,42.80
2023-01-23T21:24:46.751Z,39.20
2023-01-23T21:27:15.731Z,42.10
2023-01-23T21:29:45.020Z,40.80
2023-01-23T21:32:14.175Z,43.30
2023-01-23T21:34:42.784Z,43.40
2023-01-23T21:37:11.064Z,40.20
2023-01-23T21:39:39.865Z,44.50
2023-01-23T21:42:08.304Z,43.30
2023-01-23T21:44:36.764Z,43.20
2023-01-23T21:47:04.797Z,44.40
2023-01-23T21:49:32.834Z,42.50
2023-01-23T21:52:01.060Z,43.60
2023-01-23T21:54:29.180Z,42.10
2023-01-23T21:56:57.081Z,42.50
2023-01-23T21:59:25.191Z,41.90
2023-01-23T22:01:53.161Z,43.80
2023-01-23T22:04:24.408Z,48.40
2023-01-23T22:06:55.713Z,44.50
2023-01-23T22:09:25.882Z,41.80
2023-01-23T22:11:54.382Z,39.80
2023-01-23T22:14:22.328Z,38.80
2023-01-23T22:16:51.230Z,40.50
2023-01-23T22:19:25.012Z,40.80
2023-01-23T22:21:54.886Z,38.40
2023-01-23T22:24:23.513Z,39.40
2023-01-23T22:26:51.941Z,38.30
2023-01-23T22:29:20.068Z,40.80
2023-01-23T22:31:48.271Z,39.90
2023-01-23T22:34:16.327Z,39.90
2023-01-23T22:36:44.296Z,40.70
2023-01-23T22:39:16.100Z,40.80
2023-01-23T22:41:48.252Z,38.20
2023-01-23T22:44:16.355Z,37.70
2023-01-23T22:46:44.464Z,39.90
2023-01-23T22:49:12.437Z,38.60
2023-01-23T22:51:40.535Z,36.30
2023-01-23T22:54:08.588Z,36.20
2023-01-23T22:56:36.589Z,35.80
2023-01-23T22:59:04.720Z,36.90
2023-01-23T23:01:32.838Z,37.80
2023-01-23T23:04:03.761Z,37.80
2023-01-23T23:06:31.991Z,36.30
2023-01-23T23:09:00.074Z,37.70
2023-01-23T23:11:29.195Z,36.20
2023-01-23T23:13:58.097Z,37.50
2023-01-23T23:16:32.162Z,39.80
2023-01-23T23:19:04.649Z,38.70
2023-01-23T23:21:36.840Z,40.90
2023-01-23T23:24:07.894Z,35.30
2023-01-23T23:26:36.177Z,39.40
2023-01-23T23:29:05.208Z,37.30
2023-01-23T23:31:36.067Z,39.10
2023-01-23T23:34:04.236Z,37.50
2023-01-23T23:36:32.651Z,37.70
2023-01-23T23:39:00.962Z,36.20
2023-01-23T23:41:29.148Z,38.60
2023-01-23T23:43:57.108Z,37.10
2023-01-23T23:46:25.231Z,35.20
2023-01-23T23:48:53.193Z,36.90
2023-01-23T23:51:22.940Z,37.80
2023-01-23T23:53:50.911Z,37.10
2023-01-23T23:56:25.687Z,37.20
2023-01-23T23:58:55.151Z,37.10
